Time;durP1;ratioP1;P1;durP2;ratioP2;P2;SDS_P1;SDS_P2;PMS_P1;PMS_P2;Temp;Humidity;BMP_temperature;BMP_pressure;BME280_temperature;BME280_humidity;BME280_pressure;Samples;Min_cycle;Max_cycle;Signal;HPM_P1;HPM_P2
2023/05/20 00:01:02;;;;;;;2.77;1.20;;;11.10;99.90;;;;;;4981828;28;20601;-68
2023/05/20 00:03:30;;;;;;;1.50;1.40;;;11.10;99.90;;;;;;4980761;28;20541;-68
2023/05/20 00:05:58;;;;;;;1.30;1.20;;;11.10;99.90;;;;;;4981810;28;20552;-68
2023/05/20 00:08:26;;;;;;;1.60;1.40;;;11.00;99.90;;;;;;4980992;28;20584;-68
2023/05/20 00:10:54;;;;;;;1.63;1.40;;;11.00;99.90;;;;;;4981882;28;20595;-68
2023/05/20 00:13:23;;;;;;;1.40;1.30;;;11.00;99.90;;;;;;4980138;28;20870;-68
2023/05/20 00:15:52;;;;;;;1.53;1.40;;;11.00;99.90;;;;;;4980949;28;20568;-68
2023/05/20 00:18:21;;;;;;;1.80;1.37;;;10.90;99.90;;;;;;4982096;28;21039;-68
2023/05/20 00:20:49;;;;;;;3.27;1.40;;;10.90;99.90;;;;;;4981115;28;20880;-68
2023/05/20 00:23:17;;;;;;;1.73;1.43;;;10.90;99.90;;;;;;4979176;28;20574;-68
2023/05/20 00:25:45;;;;;;;1.50;1.30;;;10.90;99.90;;;;;;4981372;28;20505;-68
2023/05/20 00:28:13;;;;;;;1.80;1.50;;;10.80;99.90;;;;;;4980971;28;20480;-68
2023/05/20 00:30:42;;;;;;;2.53;1.30;;;10.80;99.90;;;;;;4981560;28;21023;-68
2023/05/20 00:33:10;;;;;;;1.50;1.40;;;10.80;99.90;;;;;;4980237;28;20493;-68
2023/05/20 00:35:39;;;;;;;1.50;1.40;;;10.80;99.90;;;;;;4981751;28;21374;-68
2023/05/20 00:38:07;;;;;;;1.47;1.37;;;10.80;99.90;;;;;;4981142;28;20553;-68
2023/05/20 00:40:35;;;;;;;1.57;1.30;;;10.80;99.90;;;;;;4977295;28;20492;-68
2023/05/20 00:43:03;;;;;;;1.77;1.50;;;10.80;99.90;;;;;;4978563;28;20927;-68
2023/05/20 00:45:32;;;;;;;2.30;1.20;;;10.70;99.90;;;;;;4981197;28;20482;-68
2023/05/20 00:48:02;;;;;;;2.40;1.50;;;10.70;99.90;;;;;;4979455;28;20895;-68
2023/05/20 00:50:31;;;;;;;1.57;1.23;;;10.70;99.90;;;;;;4980744;28;20553;-68
2023/05/20 00:53:01;;;;;;;4.60;1.93;;;10.60;99.90;;;;;;4980150;28;20568;-68
2023/05/20 00:55:29;;;;;;;1.47;1.30;;;10.60;99.90;;;;;;4981071;28;20601;-68
2023/05/20 00:57:57;;;;;;;1.23;1.10;;;10.60;99.90;;;;;;4979600;28;20469;-68
2023/05/20 01:00:25;;;;;;;2.57;1.40;;;10.60;99.90;;;;;;4981299;28;20496;-68
2023/05/20 01:02:55;;;;;;;2.10;1.70;;;10.60;99.90;;;;;;4979993;28;20529;-68
2023/05/20 01:05:23;;;;;;;1.30;1.20;;;10.60;99.90;;;;;;4981662;28;20473;-68
2023/05/20 01:07:51;;;;;;;1.23;1.13;;;10.60;99.90;;;;;;4979593;28;21042;-68
2023/05/20 01:10:22;;;;;;;1.50;1.40;;;10.60;99.90;;;;;;4981195;28;20588;-68
2023/05/20 01:12:56;;;;;;;1.40;1.30;;;10.50;99.90;;;;;;4978566;28;20525;-68
2023/05/20 01:15:27;;;;;;;1.50;1.40;;;10.50;99.90;;;;;;4979947;28;20583;-68
2023/05/20 01:18:01;;;;;;;1.43;1.30;;;10.50;99.90;;;;;;4980634;28;20585;-68
2023/05/20 01:20:31;;;;;;;1.73;1.53;;;10.50;99.90;;;;;;4980845;28;20496;-68
2023/05/20 01:23:01;;;;;;;2.20;1.40;;;10.50;99.90;;;;;;4977976;28;20560;-68
2023/05/20 01:25:29;;;;;;;2.30;1.47;;;10.40;99.90;;;;;;4980956;28;20469;-68
2023/05/20 01:27:57;;;;;;;1.40;1.30;;;10.40;99.90;;;;;;4979865;28;20532;-69
2023/05/20 01:30:32;;;;;;;1.70;1.60;;;10.40;99.90;;;;;;4980378;28;20555;-68
2023/05/20 01:33:05;;;;;;;1.47;1.37;;;10.30;99.90;;;;;;4980126;28;21017;-68
2023/05/20 01:35:35;;;;;;;1.70;1.60;;;10.30;99.90;;;;;;4979946;28;20473;-68
2023/05/20 01:38:06;;;;;;;1.40;1.30;;;10.30;99.90;;;;;;4980905;28;20575;-68
2023/05/20 01:40:34;;;;;;;2.13;1.60;;;10.30;99.90;;;;;;4979627;28;21137;-68
2023/05/20 01:43:04;;;;;;;1.60;1.50;;;10.20;99.90;;;;;;4979849;28;20517;-68
2023/05/20 01:45:32;;;;;;;1.60;1.50;;;10.20;99.90;;;;;;4980620;28;20551;-68
2023/05/20 01:48:02;;;;;;;1.53;1.43;;;10.20;99.90;;;;;;4979938;28;21014;-68
2023/05/20 01:50:30;;;;;;;1.70;1.40;;;10.20;99.90;;;;;;4979965;28;20488;-68
2023/05/20 01:52:58;;;;;;;2.70;1.77;;;10.20;99.90;;;;;;4979315;28;20851;-68
2023/05/20 01:55:27;;;;;;;1.83;1.47;;;10.20;99.90;;;;;;4980104;28;20493;-68
2023/05/20 01:57:55;;;;;;;1.83;1.57;;;10.20;99.90;;;;;;4979708;28;20499;-68
2023/05/20 02:00:24;;;;;;;2.50;1.60;;;10.20;99.90;;;;;;4981067;28;20536;-68
2023/05/20 02:02:52;;;;;;;2.50;1.70;;;10.10;99.90;;;;;;4979844;28;20520;-68
2023/05/20 02:05:20;;;;;;;1.87;1.70;;;10.10;99.90;;;;;;4980884;28;20465;-68
2023/05/20 02:07:48;;;;;;;1.83;1.73;;;10.20;99.90;;;;;;4978803;28;20478;-69
2023/05/20 02:10:16;;;;;;;1.90;1.60;;;10.10;99.90;;;;;;4980281;28;21083;-68
2023/05/20 02:12:46;;;;;;;1.60;1.50;;;10.10;99.90;;;;;;4979088;28;20496;-68
2023/05/20 02:15:14;;;;;;;1.90;1.70;;;10.10;99.90;;;;;;4979859;28;21009;-68
2023/05/20 02:17:43;;;;;;;1.50;1.40;;;10.10;99.90;;;;;;4981001;28;20552;-69
2023/05/20 02:20:12;;;;;;;1.77;1.60;;;10.10;99.90;;;;;;4980654;28;20477;-68
2023/05/20 02:22:40;;;;;;;3.47;1.83;;;10.10;99.90;;;;;;4978957;28;20489;-68
2023/05/20 02:25:09;;;;;;;3.03;1.50;;;10.10;99.90;;;;;;4980253;28;20477;-68
2023/05/20 02:27:39;;;;;;;3.23;1.57;;;10.10;99.90;;;;;;4980440;28;20477;-68
2023/05/20 02:30:09;;;;;;;2.00;1.83;;;10.10;99.90;;;;;;4979077;28;20827;-68
2023/05/20 02:32:37;;;;;;;1.50;1.40;;;10.10;99.90;;;;;;4979520;28;20481;-68
2023/05/20 02:35:06;;;;;;;2.00;1.63;;;10.00;99.90;;;;;;4978896;28;20466;-68
2023/05/20 02:37:34;;;;;;;1.63;1.53;;;10.00;99.90;;;;;;4979991;28;20478;-69
2023/05/20 02:40:03;;;;;;;1.60;1.50;;;10.00;99.90;;;;;;4982661;28;20504;-68
2023/05/20 02:42:31;;;;;;;3.40;1.50;;;10.00;99.90;;;;;;4982644;28;20537;-68
2023/05/20 02:44:59;;;;;;;2.90;1.93;;;9.90;99.90;;;;;;4983058;28;20843;-68
2023/05/20 02:47:29;;;;;;;1.87;1.33;;;9.90;99.90;;;;;;4981432;28;20506;-68
2023/05/20 02:49:57;;;;;;;1.70;1.30;;;9.90;99.90;;;;;;4984039;28;20811;-68
2023/05/20 02:52:25;;;;;;;2.20;1.30;;;9.90;99.90;;;;;;4981713;28;20516;-69
2023/05/20 02:54:53;;;;;;;1.57;1.33;;;9.90;99.90;;;;;;4983393;28;20974;-69
2023/05/20 02:57:21;;;;;;;2.10;1.73;;;9.90;99.90;;;;;;4982373;28;20473;-69
2023/05/20 02:59:49;;;;;;;4.90;2.17;;;9.80;99.90;;;;;;4983082;28;20557;-69
2023/05/20 03:02:17;;;;;;;3.10;1.60;;;9.80;99.90;;;;;;4981889;28;20498;-69
2023/05/20 03:04:46;;;;;;;1.73;1.63;;;9.80;99.90;;;;;;4984286;28;20949;-69
2023/05/20 03:07:18;;;;;;;1.80;1.70;;;9.80;99.90;;;;;;4999754;28;20537;-69
2023/05/20 03:09:46;;;;;;;1.63;1.53;;;9.80;99.90;;;;;;4994745;28;20557;-69
2023/05/20 03:12:14;;;;;;;1.77;1.60;;;9.80;99.90;;;;;;4983758;28;20906;-69
2023/05/20 03:14:42;;;;;;;1.90;1.50;;;9.80;99.90;;;;;;4982277;28;20524;-69
2023/05/20 03:17:11;;;;;;;2.20;1.70;;;9.80;99.90;;;;;;4983696;28;20505;-69
2023/05/20 03:19:39;;;;;;;1.23;1.13;;;9.80;99.90;;;;;;4983135;28;20533;-69
2023/05/20 03:22:08;;;;;;;2.87;1.40;;;9.70;99.90;;;;;;4981885;28;20907;-69
2023/05/20 03:24:37;;;;;;;2.10;1.43;;;9.70;99.90;;;;;;4981701;28;21387;-69
2023/05/20 03:27:05;;;;;;;1.57;1.47;;;9.70;99.90;;;;;;4983354;28;20506;-69
2023/05/20 03:29:33;;;;;;;2.73;1.63;;;9.70;99.90;;;;;;4981680;28;20552;-69
2023/05/20 03:32:01;;;;;;;2.07;1.57;;;9.70;99.90;;;;;;4981163;28;20512;-69
2023/05/20 03:34:30;;;;;;;2.70;1.40;;;9.70;99.90;;;;;;4981104;28;20907;-69
2023/05/20 03:36:59;;;;;;;2.27;1.40;;;9.70;99.90;;;;;;4982692;28;20564;-69
2023/05/20 03:39:28;;;;;;;2.17;1.87;;;9.70;99.90;;;;;;4981697;28;20470;-69
2023/05/20 03:41:56;;;;;;;2.73;1.90;;;9.70;99.90;;;;;;4981529;28;20919;-69
2023/05/20 03:44:24;;;;;;;1.63;1.53;;;9.70;99.90;;;;;;4980930;28;20575;-69
2023/05/20 03:46:52;;;;;;;3.00;1.50;;;9.70;99.90;;;;;;4982767;28;20508;-69
2023/05/20 03:49:20;;;;;;;1.90;1.40;;;9.70;99.90;;;;;;4981865;28;20477;-69
2023/05/20 03:51:48;;;;;;;1.50;1.40;;;9.70;99.90;;;;;;4981746;28;20548;-69
2023/05/20 03:54:18;;;;;;;1.80;1.70;;;9.70;99.90;;;;;;4982390;28;20896;-69
2023/05/20 03:56:48;;;;;;;2.40;1.77;;;9.70;99.90;;;;;;4980106;28;21086;-69
2023/05/20 03:59:16;;;;;;;3.83;1.97;;;9.70;99.90;;;;;;4983029;28;20470;-69
2023/05/20 04:01:45;;;;;;;2.23;1.60;;;9.70;99.90;;;;;;4981129;28;20845;-69
2023/05/20 04:04:13;;;;;;;2.30;1.40;;;9.80;99.90;;;;;;4981567;28;20473;-69
2023/05/20 04:06:41;;;;;;;1.60;1.50;;;9.80;99.90;;;;;;4981023;28;20849;-69
2023/05/20 04:09:09;;;;;;;4.50;1.90;;;9.80;99.90;;;;;;4981852;28;21089;-69
2023/05/20 04:11:37;;;;;;;2.13;1.70;;;9.80;99.90;;;;;;4981515;28;20980;-69
2023/05/20 04:14:06;;;;;;;1.60;1.50;;;9.80;99.90;;;;;;4979881;28;20513;-69
2023/05/20 04:16:36;;;;;;;2.70;1.50;;;9.90;99.90;;;;;;4982780;28;20466;-69
2023/05/20 04:19:04;;;;;;;2.00;1.50;;;9.90;99.90;;;;;;4982088;28;20588;-69
2023/05/20 04:21:32;;;;;;;1.53;1.43;;;9.90;99.90;;;;;;4981829;28;20509;-69
2023/05/20 04:24:00;;;;;;;1.47;1.30;;;9.90;99.90;;;;;;4979498;28;20485;-69
2023/05/20 04:26:28;;;;;;;1.90;1.57;;;10.00;99.90;;;;;;4981816;28;20569;-69
2023/05/20 04:28:57;;;;;;;2.30;1.60;;;10.00;99.90;;;;;;4980986;28;20501;-69
2023/05/20 04:31:27;;;;;;;2.47;1.70;;;10.10;99.90;;;;;;4981313;28;20466;-69
2023/05/20 04:33:55;;;;;;;2.30;1.70;;;10.10;99.90;;;;;;4979537;28;20498;-69
2023/05/20 04:36:27;;;;;;;1.60;1.50;;;10.20;99.90;;;;;;4981649;28;20910;-70
2023/05/20 04:38:56;;;;;;;3.33;1.53;;;10.20;99.90;;;;;;4981788;28;20474;-69
2023/05/20 04:41:24;;;;;;;2.17;1.97;;;10.30;99.90;;;;;;4979981;28;20504;-67
2023/05/20 04:43:52;;;;;;;4.67;2.07;;;10.30;99.90;;;;;;4980357;28;20589;-67
2023/05/20 04:46:20;;;;;;;3.80;1.70;;;10.30;99.90;;;;;;4981414;28;20481;-67
2023/05/20 04:48:50;;;;;;;4.63;1.83;;;10.40;99.90;;;;;;4980222;28;20477;-67
2023/05/20 04:51:18;;;;;;;2.93;1.90;;;10.40;99.90;;;;;;4981695;28;20473;-69
2023/05/20 04:53:46;;;;;;;2.60;2.13;;;10.40;99.90;;;;;;4980205;28;20523;-70
2023/05/20 04:56:14;;;;;;;2.63;1.83;;;10.40;99.90;;;;;;4981463;28;20501;-70
2023/05/20 04:58:42;;;;;;;1.70;1.60;;;10.40;99.90;;;;;;4979774;28;20991;-70
2023/05/20 05:01:10;;;;;;;2.87;1.40;;;10.50;99.90;;;;;;4981438;28;20509;-67
2023/05/20 05:03:38;;;;;;;2.87;1.93;;;10.50;99.90;;;;;;4978916;28;20485;-68
2023/05/20 05:06:07;;;;;;;1.93;1.77;;;10.60;99.90;;;;;;4980919;28;20465;-68
2023/05/20 05:08:35;;;;;;;2.80;1.70;;;10.60;99.90;;;;;;4979873;28;20816;-68
2023/05/20 05:11:05;;;;;;;3.23;1.70;;;10.70;99.90;;;;;;4980443;28;20474;-68
2023/05/20 05:13:33;;;;;;;2.60;2.20;;;10.80;99.90;;;;;;4978287;28;20991;-68
2023/05/20 05:16:02;;;;;;;2.13;1.60;;;10.80;99.90;;;;;;4981123;28;20504;-68
2023/05/20 05:18:30;;;;;;;3.60;2.13;;;10.90;99.90;;;;;;4985439;28;20469;-68
2023/05/20 05:21:00;;;;;;;1.97;1.53;;;11.00;99.90;;;;;;5002475;28;20497;-67
2023/05/20 05:23:30;;;;;;;2.80;2.10;;;11.00;99.90;;;;;;4990819;28;20569;-72
2023/05/20 05:25:58;;;;;;;2.23;1.87;;;11.10;99.90;;;;;;4990575;28;20874;-68
2023/05/20 05:28:26;;;;;;;2.40;1.80;;;11.10;99.90;;;;;;4978903;28;21200;-68
2023/05/20 05:30:55;;;;;;;3.30;1.80;;;11.20;99.90;;;;;;4981301;28;20479;-68
2023/05/20 05:33:23;;;;;;;3.17;2.10;;;11.20;99.90;;;;;;4978526;28;20492;-68
2023/05/20 05:35:51;;;;;;;3.63;1.77;;;11.30;99.90;;;;;;4980479;28;20482;-68
2023/05/20 05:38:19;;;;;;;3.27;1.80;;;11.30;99.90;;;;;;4981279;28;20473;-68
2023/05/20 05:40:49;;;;;;;2.47;1.57;;;11.30;99.90;;;;;;4979721;28;20509;-68
2023/05/20 05:43:17;;;;;;;2.57;1.80;;;11.40;99.90;;;;;;4980194;28;20572;-68
2023/05/20 05:45:45;;;;;;;3.30;1.90;;;11.40;99.90;;;;;;4980441;28;20472;-68
2023/05/20 05:48:13;;;;;;;1.70;1.60;;;11.50;99.90;;;;;;4980738;28;20469;-68
2023/05/20 05:50:44;;;;;;;3.40;1.90;;;11.60;99.90;;;;;;4980075;28;20469;-68
2023/05/20 05:53:12;;;;;;;2.40;1.80;;;11.70;99.90;;;;;;4978316;28;20576;-68
2023/05/20 05:55:40;;;;;;;2.17;1.60;;;11.70;99.90;;;;;;4979750;28;20515;-68
2023/05/20 05:58:10;;;;;;;4.80;2.43;;;11.70;99.90;;;;;;4981038;28;20904;-68
2023/05/20 06:00:38;;;;;;;3.30;1.97;;;11.80;99.90;;;;;;4980059;28;20506;-68
2023/05/20 06:03:06;;;;;;;3.47;2.20;;;11.80;99.90;;;;;;4979271;28;20485;-68
2023/05/20 06:05:34;;;;;;;2.50;1.93;;;11.90;99.90;;;;;;4980239;28;20594;-68
2023/05/20 06:08:02;;;;;;;3.57;2.17;;;11.90;99.90;;;;;;4981095;28;20478;-68
2023/05/20 06:10:30;;;;;;;3.33;1.87;;;12.00;99.90;;;;;;4978800;28;20517;-68
2023/05/20 06:12:58;;;;;;;3.70;1.97;;;12.00;99.90;;;;;;4979677;28;20490;-68
2023/05/20 06:15:27;;;;;;;3.73;1.90;;;12.00;99.90;;;;;;4983372;28;20477;-68
2023/05/20 06:17:55;;;;;;;3.80;1.73;;;12.00;99.90;;;;;;4984270;28;20911;-68
2023/05/20 06:20:24;;;;;;;1.73;1.63;;;12.10;99.90;;;;;;4983881;28;20476;-68
2023/05/20 06:22:52;;;;;;;3.10;1.80;;;12.10;99.90;;;;;;4980746;28;20488;-68
2023/05/20 06:25:21;;;;;;;2.10;1.90;;;12.20;99.90;;;;;;4984280;28;21055;-69
2023/05/20 06:27:50;;;;;;;3.70;2.10;;;12.20;99.90;;;;;;4983747;28;20461;-68
2023/05/20 06:30:18;;;;;;;4.37;2.00;;;12.20;99.90;;;;;;4983049;28;20481;-68
2023/05/20 06:32:47;;;;;;;1.93;1.63;;;12.30;99.90;;;;;;4982404;28;20508;-68
2023/05/20 06:35:16;;;;;;;2.50;1.90;;;12.40;99.90;;;;;;4984197;28;20474;-70
2023/05/20 06:37:44;;;;;;;5.67;1.90;;;12.40;99.90;;;;;;4983416;28;20470;-68
2023/05/20 06:40:12;;;;;;;2.77;1.97;;;12.50;99.90;;;;;;4981933;28;20899;-68
2023/05/20 06:42:40;;;;;;;2.17;1.97;;;12.60;99.90;;;;;;4982732;28;20615;-68
2023/05/20 06:45:09;;;;;;;7.53;2.10;;;12.60;99.90;;;;;;4983118;28;20480;-69
2023/05/20 06:47:37;;;;;;;2.40;1.47;;;12.70;99.90;;;;;;4983529;28;21041;-68
2023/05/20 06:50:08;;;;;;;2.00;1.87;;;12.80;99.90;;;;;;4982764;28;21048;-68
2023/05/20 06:52:36;;;;;;;2.70;1.87;;;12.80;99.90;;;;;;4982350;28;20476;-68
2023/05/20 06:55:04;;;;;;;4.43;1.97;;;13.00;99.90;;;;;;4983648;28;20517;-68
2023/05/20 06:57:32;;;;;;;2.70;2.10;;;13.10;99.90;;;;;;4982357;28;20470;-68
2023/05/20 07:00:03;;;;;;;3.17;2.20;;;13.20;99.90;;;;;;4980491;28;20478;-68
2023/05/20 07:02:31;;;;;;;3.30;2.60;;;13.30;99.90;;;;;;4979366;28;20584;-69
2023/05/20 07:04:59;;;;;;;2.73;2.17;;;13.30;99.90;;;;;;4968971;28;20546;-68
2023/05/20 07:07:28;;;;;;;3.30;2.20;;;13.40;99.90;;;;;;4982710;28;20576;-68
2023/05/20 07:09:57;;;;;;;2.50;1.87;;;13.60;99.90;;;;;;4982815;28;20556;-68
2023/05/20 07:12:27;;;;;;;2.83;2.30;;;13.60;99.90;;;;;;4980986;28;20493;-68
2023/05/20 07:14:55;;;;;;;3.63;2.00;;;13.70;99.90;;;;;;4981427;28;20497;-68
2023/05/20 07:17:24;;;;;;;3.10;1.93;;;13.80;99.90;;;;;;4983043;28;20563;-68
2023/05/20 07:19:52;;;;;;;3.50;2.60;;;13.90;99.90;;;;;;4982345;28;20560;-69
2023/05/20 07:22:20;;;;;;;3.17;1.90;;;14.00;99.90;;;;;;4977171;28;20537;-68
2023/05/20 07:24:49;;;;;;;2.93;1.90;;;14.10;99.90;;;;;;4982190;28;20998;-69
2023/05/20 07:27:17;;;;;;;3.83;2.03;;;14.20;99.90;;;;;;4981979;28;20493;-68
2023/05/20 07:29:45;;;;;;;5.40;1.93;;;14.30;99.90;;;;;;4982654;28;20548;-68
2023/05/20 07:32:13;;;;;;;3.30;1.90;;;14.30;99.90;;;;;;4980725;28;20540;-68
2023/05/20 07:34:41;;;;;;;2.40;2.17;;;14.40;99.90;;;;;;4982548;28;20561;-68
2023/05/20 07:37:11;;;;;;;2.30;2.10;;;14.50;99.90;;;;;;4982519;28;20894;-69
2023/05/20 07:39:39;;;;;;;2.90;2.07;;;14.60;99.90;;;;;;4982087;28;20480;-68
2023/05/20 07:42:08;;;;;;;2.47;2.27;;;14.60;99.90;;;;;;4981876;28;20564;-68
2023/05/20 07:44:36;;;;;;;2.67;2.17;;;14.70;99.90;;;;;;4982089;28;20589;-69
2023/05/20 07:47:05;;;;;;;3.30;2.50;;;14.70;99.90;;;;;;4984729;28;20574;-69
2023/05/20 07:49:33;;;;;;;5.23;2.27;;;14.80;99.90;;;;;;5000494;28;20467;-69
2023/05/20 07:52:01;;;;;;;3.23;2.23;;;14.80;99.90;;;;;;4997329;28;20468;-69
2023/05/20 07:54:30;;;;;;;2.87;2.33;;;14.90;99.90;;;;;;4983917;28;20469;-69
2023/05/20 07:56:59;;;;;;;2.93;2.57;;;14.90;99.90;;;;;;4981117;28;20975;-69
2023/05/20 07:59:28;;;;;;;2.17;1.97;;;15.00;99.90;;;;;;4981969;28;20608;-69
2023/05/20 08:01:56;;;;;;;2.50;2.30;;;15.10;99.90;;;;;;4981055;28;20989;-69
2023/05/20 08:04:25;;;;;;;4.50;2.40;;;15.20;99.90;;;;;;4980011;28;21010;-69
2023/05/20 08:06:54;;;;;;;2.60;2.20;;;15.20;99.90;;;;;;4981221;28;21001;-69
2023/05/20 08:09:22;;;;;;;2.77;2.30;;;15.30;99.90;;;;;;4982225;28;21044;-69
2023/05/20 08:11:50;;;;;;;2.47;2.30;;;15.40;99.90;;;;;;4980488;28;20662;-70
2023/05/20 08:14:18;;;;;;;2.10;1.93;;;15.40;99.90;;;;;;4981560;28;20570;-69
2023/05/20 08:16:47;;;;;;;2.80;2.40;;;15.60;99.90;;;;;;4982027;28;21021;-69
2023/05/20 08:19:15;;;;;;;2.63;2.40;;;15.60;99.90;;;;;;4982282;28;20474;-69
2023/05/20 08:21:43;;;;;;;4.00;2.30;;;15.70;99.90;;;;;;4981345;28;20470;-69
2023/05/20 08:24:11;;;;;;;2.70;2.10;;;15.80;99.90;;;;;;4980070;28;20572;-69
2023/05/20 08:26:39;;;;;;;2.60;2.30;;;15.90;99.90;;;;;;4981525;28;20572;-69
2023/05/20 08:29:08;;;;;;;3.20;2.20;;;16.00;99.90;;;;;;4981709;28;20513;-69
2023/05/20 08:31:36;;;;;;;2.67;2.30;;;16.00;99.90;;;;;;4980852;28;20954;-69
2023/05/20 08:34:05;;;;;;;3.70;2.30;;;16.20;99.90;;;;;;4981127;28;20474;-69
2023/05/20 08:36:33;;;;;;;2.63;2.43;;;16.20;99.90;;;;;;4981143;28;20536;-69
2023/05/20 08:39:01;;;;;;;3.93;2.20;;;16.30;99.90;;;;;;4981690;28;20549;-69
2023/05/20 08:41:29;;;;;;;2.77;2.57;;;16.40;99.90;;;;;;4980219;28;20511;-69
2023/05/20 08:44:00;;;;;;;2.70;2.50;;;16.40;99.90;;;;;;4981787;28;20494;-69
2023/05/20 08:46:28;;;;;;;1.87;1.73;;;16.40;99.90;;;;;;4981536;28;20543;-69
2023/05/20 08:48:58;;;;;;;2.37;2.03;;;16.40;99.90;;;;;;4981358;28;20544;-69
2023/05/20 08:51:28;;;;;;;2.60;2.40;;;16.40;99.90;;;;;;4979711;28;20563;-69
2023/05/20 08:53:56;;;;;;;1.93;1.70;;;16.40;99.90;;;;;;4980062;28;20483;-69
2023/05/20 08:56:26;;;;;;;2.53;2.13;;;16.40;99.90;;;;;;4980709;28;20473;-69
2023/05/20 08:58:56;;;;;;;4.53;2.30;;;16.40;99.90;;;;;;4979272;28;20477;-69
2023/05/20 09:01:25;;;;;;;2.50;2.10;;;16.40;99.90;;;;;;4980781;28;20930;-69
2023/05/20 09:03:53;;;;;;;2.43;2.30;;;16.50;99.90;;;;;;4980028;28;20907;-69
2023/05/20 09:06:22;;;;;;;2.10;2.00;;;16.50;99.90;;;;;;4980137;28;20898;-69
2023/05/20 09:08:52;;;;;;;3.90;2.00;;;16.60;99.90;;;;;;4981136;28;20478;-69
2023/05/20 09:11:21;;;;;;;2.20;2.00;;;16.80;99.90;;;;;;4980932;28;20947;-69
2023/05/20 09:13:50;;;;;;;2.23;2.03;;;16.80;99.90;;;;;;4979568;28;20525;-69
2023/05/20 09:16:18;;;;;;;2.10;2.00;;;16.80;99.90;;;;;;4981144;28;21171;-69
2023/05/20 09:18:46;;;;;;;3.57;2.37;;;16.90;99.90;;;;;;4980767;28;20479;-69
2023/05/20 09:21:15;;;;;;;4.47;1.90;;;17.00;99.90;;;;;;4981404;28;20468;-69
2023/05/20 09:23:47;;;;;;;4.73;2.00;;;17.00;99.90;;;;;;4978722;28;20564;-70
2023/05/20 09:26:19;;;;;;;3.17;2.20;;;16.90;99.90;;;;;;4980476;28;20490;-69
2023/05/20 09:28:47;;;;;;;2.37;2.07;;;16.90;99.90;;;;;;4981173;28;20505;-70
2023/05/20 09:31:15;;;;;;;2.23;1.93;;;16.90;99.90;;;;;;4975352;28;20486;-69
2023/05/20 09:33:44;;;;;;;1.80;1.70;;;16.90;99.90;;;;;;4978791;28;20595;-69
2023/05/20 09:36:13;;;;;;;2.10;1.90;;;17.00;99.90;;;;;;4981071;28;20469;-69
2023/05/20 09:38:44;;;;;;;2.57;1.90;;;17.00;99.90;;;;;;4979853;28;20480;-68
2023/05/20 09:41:14;;;;;;;2.20;1.90;;;17.10;99.90;;;;;;4983388;28;20528;-68
2023/05/20 09:43:44;;;;;;;2.13;2.00;;;17.30;99.90;;;;;;4984240;28;21508;-67
2023/05/20 09:46:13;;;;;;;1.90;1.80;;;17.40;99.90;;;;;;4981495;28;20576;-67
2023/05/20 09:48:41;;;;;;;2.37;2.17;;;17.40;99.90;;;;;;4981080;28;20472;-67
2023/05/20 09:51:12;;;;;;;2.50;1.70;;;17.30;99.90;;;;;;4984987;28;20501;-70
2023/05/20 09:53:41;;;;;;;3.73;2.47;;;17.20;99.90;;;;;;4957374;28;21309;-64
2023/05/20 09:56:10;;;;;;;3.27;2.40;;;17.20;99.90;;;;;;4960471;28;21046;-66
2023/05/20 09:58:44;;;;;;;2.47;2.00;;;17.20;99.90;;;;;;4962252;28;20468;-66
2023/05/20 10:01:12;;;;;;;1.70;1.57;;;17.20;99.90;;;;;;4969177;28;20483;-68
2023/05/20 10:03:40;;;;;;;2.70;2.10;;;17.10;99.90;;;;;;4973662;28;20490;-67
2023/05/20 10:06:28;;;;;;;2.10;1.90;;;17.10;99.90;;;;;;4974936;28;20508;-67
2023/05/20 10:09:11;;;;;;;2.10;2.00;;;17.20;99.90;;;;;;4975622;28;20512;-68
2023/05/20 10:11:47;;;;;;;2.00;1.80;;;17.20;99.90;;;;;;4975824;28;20476;-67
2023/05/20 10:14:32;;;;;;;2.10;1.90;;;17.20;99.90;;;;;;4971401;28;20484;-68
2023/05/20 10:17:09;;;;;;;1.83;1.73;;;17.20;99.90;;;;;;4967081;28;20505;-67
2023/05/20 10:19:37;;;;;;;2.47;2.13;;;17.10;99.90;;;;;;4967079;28;20480;-67
2023/05/20 10:22:07;;;;;;;2.93;1.90;;;17.00;99.90;;;;;;4977346;28;20506;-68
2023/05/20 10:24:36;;;;;;;4.23;2.20;;;17.00;99.90;;;;;;4957843;28;21104;-68
2023/05/20 10:27:07;;;;;;;2.50;2.03;;;16.90;99.90;;;;;;4970339;28;20466;-68
2023/05/20 10:29:45;;;;;;;2.60;1.87;;;16.90;99.90;;;;;;4972757;28;21178;-68
2023/05/20 10:32:26;;;;;;;3.10;2.03;;;16.90;99.90;;;;;;4975977;28;20629;-68
2023/05/20 10:34:59;;;;;;;2.17;1.97;;;17.00;99.90;;;;;;4968589;28;21045;-69
2023/05/20 10:37:28;;;;;;;1.90;1.80;;;17.20;99.90;;;;;;4973518;28;21994;-68
2023/05/20 10:40:07;;;;;;;3.40;2.40;;;17.30;99.90;;;;;;4973266;28;20888;-69
2023/05/20 10:42:35;;;;;;;1.57;1.43;;;17.50;99.90;;;;;;4973833;28;20497;-68
2023/05/20 10:45:06;;;;;;;1.90;1.80;;;17.50;99.90;;;;;;4937177;28;20523;-68
2023/05/20 10:47:35;;;;;;;2.77;1.90;;;17.50;99.90;;;;;;4965924;28;20496;-68
2023/05/20 10:50:04;;;;;;;2.50;1.90;;;17.40;99.90;;;;;;4955446;28;20591;-68
2023/05/20 10:52:34;;;;;;;1.90;1.80;;;17.40;99.90;;;;;;4969866;28;20514;-68
2023/05/20 10:55:03;;;;;;;3.03;2.20;;;17.40;99.90;;;;;;4966350;28;20883;-68
2023/05/20 10:57:32;;;;;;;2.53;1.83;;;17.50;99.90;;;;;;4970858;28;20637;-68
2023/05/20 11:00:00;;;;;;;2.20;2.00;;;17.60;99.90;;;;;;4974808;28;21025;-68
2023/05/20 11:02:30;;;;;;;2.00;1.90;;;17.60;99.90;;;;;;4977206;28;20588;-68
2023/05/20 11:04:59;;;;;;;2.23;2.10;;;17.60;99.90;;;;;;4980173;28;20482;-68
2023/05/20 11:07:27;;;;;;;2.50;2.00;;;17.60;99.90;;;;;;4950944;28;20988;-68
2023/05/20 11:09:55;;;;;;;3.43;1.57;;;17.60;99.90;;;;;;4978798;28;20934;-68
2023/05/20 11:12:25;;;;;;;3.50;2.07;;;17.70;99.90;;;;;;4963546;28;20536;-68
2023/05/20 11:14:53;;;;;;;1.80;1.70;;;17.90;99.90;;;;;;4974069;28;21107;-70
2023/05/20 11:17:21;;;;;;;2.17;1.97;;;17.90;99.90;;;;;;4979592;28;21029;-70
2023/05/20 11:19:51;;;;;;;2.33;2.00;;;17.90;99.90;;;;;;4964341;28;20515;-70
2023/05/20 11:22:19;;;;;;;2.30;2.20;;;17.90;99.90;;;;;;4977682;28;20490;-69
2023/05/20 11:24:47;;;;;;;2.40;1.93;;;17.80;99.90;;;;;;4970073;28;21049;-67
2023/05/20 11:27:15;;;;;;;4.03;2.20;;;17.70;99.90;;;;;;4976336;28;20625;-67
2023/05/20 11:29:43;;;;;;;2.43;2.10;;;17.60;99.90;;;;;;4968943;28;22443;-67
2023/05/20 11:32:12;;;;;;;2.27;1.90;;;17.60;99.90;;;;;;4973655;28;20595;-66
2023/05/20 11:34:41;;;;;;;2.20;2.00;;;17.50;99.90;;;;;;4976135;28;20855;-68
2023/05/20 11:37:11;;;;;;;2.53;1.73;;;17.40;99.90;;;;;;4976596;28;20626;-68
2023/05/20 11:39:39;;;;;;;3.77;2.30;;;17.30;99.90;;;;;;4974589;28;20556;-69
2023/05/20 11:42:07;;;;;;;2.40;2.20;;;17.40;99.90;;;;;;4970948;28;21469;-69
2023/05/20 11:44:35;;;;;;;3.00;1.80;;;17.40;99.90;;;;;;4968835;28;20987;-68
2023/05/20 11:47:04;;;;;;;2.33;2.03;;;17.40;99.90;;;;;;4970577;28;20877;-68
2023/05/20 11:49:39;;;;;;;2.47;1.87;;;17.40;99.90;;;;;;4968252;28;20627;-65
2023/05/20 11:52:11;;;;;;;1.93;1.73;;;17.30;99.90;;;;;;4975539;28;20467;-68
2023/05/20 11:54:39;;;;;;;2.23;1.90;;;17.30;99.90;;;;;;4972188;28;20481;-67
2023/05/20 11:57:07;;;;;;;2.10;1.87;;;17.30;99.90;;;;;;4978232;28;21095;-68
2023/05/20 11:59:35;;;;;;;4.27;2.10;;;17.30;99.90;;;;;;4973526;28;20484;-68
2023/05/20 12:02:03;;;;;;;3.43;2.20;;;17.20;99.90;;;;;;4974535;28;21009;-67
2023/05/20 12:04:31;;;;;;;4.00;2.10;;;17.20;99.90;;;;;;4977581;28;20509;-67
2023/05/20 12:06:59;;;;;;;3.17;2.10;;;17.20;99.90;;;;;;4968660;28;20500;-66
2023/05/20 12:09:29;;;;;;;2.70;2.20;;;17.20;99.90;;;;;;4976729;28;21014;-64
2023/05/20 12:11:59;;;;;;;2.83;2.33;;;17.20;99.90;;;;;;4973127;28;20557;-68
2023/05/20 12:14:27;;;;;;;2.43;2.23;;;17.20;99.90;;;;;;4969980;28;20506;-68
2023/05/20 12:16:55;;;;;;;2.60;2.20;;;17.20;99.90;;;;;;4969696;28;20475;-66
2023/05/20 12:19:23;;;;;;;2.90;2.10;;;17.20;99.90;;;;;;4961117;28;20677;-66
2023/05/20 12:21:51;;;;;;;2.60;2.40;;;17.20;99.90;;;;;;4966329;28;20486;-66
2023/05/20 12:24:20;;;;;;;3.17;2.83;;;17.20;99.90;;;;;;4971816;28;20520;-66
2023/05/20 12:26:49;;;;;;;3.07;2.77;;;17.10;99.90;;;;;;4971076;28;20493;-66
2023/05/20 12:29:17;;;;;;;2.87;2.17;;;17.10;99.90;;;;;;4964539;28;20554;-65
2023/05/20 12:31:45;;;;;;;4.03;2.53;;;17.10;99.90;;;;;;4970109;28;20552;-65
2023/05/20 12:34:13;;;;;;;2.97;2.73;;;17.00;99.90;;;;;;4963371;28;20579;-66
2023/05/20 12:36:41;;;;;;;2.70;2.50;;;16.90;99.90;;;;;;4961828;28;20474;-66
2023/05/20 12:39:09;;;;;;;2.50;2.30;;;16.90;99.90;;;;;;4973265;28;21040;-66
2023/05/20 12:41:37;;;;;;;2.97;2.67;;;16.90;99.90;;;;;;4968286;28;20514;-66
2023/05/20 12:44:07;;;;;;;2.43;2.23;;;16.90;99.90;;;;;;4967365;28;20580;-66
2023/05/20 12:46:35;;;;;;;5.53;2.60;;;16.90;99.90;;;;;;4962886;28;20498;-66
2023/05/20 12:49:03;;;;;;;6.27;2.30;;;16.90;99.90;;;;;;4971582;28;21539;-66
2023/05/20 12:51:31;;;;;;;3.73;2.87;;;17.00;99.90;;;;;;4967853;28;20568;-66
2023/05/20 12:53:59;;;;;;;3.90;2.60;;;17.00;99.90;;;;;;4964669;28;20489;-66
2023/05/20 12:56:28;;;;;;;4.03;2.40;;;17.00;99.90;;;;;;4967574;28;20939;-66